createdAt,value
2023-04-23T00:01:47.336Z,4.50
2023-04-23T00:04:19.102Z,4.20
2023-04-23T00:06:47.168Z,4.90
2023-04-23T00:09:15.953Z,4.70
2023-04-23T00:11:42.725Z,4.80
2023-04-23T00:14:09.540Z,4.40
2023-04-23T00:16:36.400Z,4.60
2023-04-23T00:19:03.370Z,5.10
2023-04-23T00:21:29.878Z,4.90
2023-04-23T00:23:56.345Z,5.20
2023-04-23T00:26:22.778Z,5.60
2023-04-23T00:28:49.273Z,4.97
2023-04-23T00:31:15.822Z,4.93
2023-04-23T00:33:42.268Z,4.30
2023-04-23T00:36:09.100Z,4.90
2023-04-23T00:38:35.560Z,4.40
2023-04-23T00:41:02.002Z,4.60
2023-04-23T00:43:28.605Z,4.73
2023-04-23T00:45:55.569Z,5.00
2023-04-23T00:48:22.294Z,4.50
2023-04-23T00:50:48.731Z,5.20
2023-04-23T00:53:15.407Z,4.67
2023-04-23T00:55:42.316Z,5.20
2023-04-23T00:58:08.858Z,5.00
2023-04-23T01:00:44.594Z,4.40
2023-04-23T01:03:11.253Z,4.70
2023-04-23T01:05:38.402Z,4.13
2023-04-23T01:08:04.921Z,4.30
2023-04-23T01:10:32.690Z,4.27
2023-04-23T01:12:59.148Z,5.50
2023-04-23T01:15:25.625Z,5.00
2023-04-23T01:17:53.681Z,4.90
2023-04-23T01:20:20.252Z,5.00
2023-04-23T01:22:46.802Z,4.60
2023-04-23T01:25:13.595Z,4.53
2023-04-23T01:27:40.950Z,5.13
2023-04-23T01:30:08.755Z,5.60
2023-04-23T01:32:35.918Z,4.70
2023-04-23T01:35:02.694Z,4.97
2023-04-23T01:37:30.396Z,5.50
2023-04-23T01:39:57.084Z,5.07
2023-04-23T01:42:23.554Z,5.00
2023-04-23T01:44:50.482Z,5.03
2023-04-23T01:47:19.557Z,5.80
2023-04-23T01:49:46.196Z,5.70
2023-04-23T01:52:12.778Z,5.60
2023-04-23T01:54:39.348Z,6.00
2023-04-23T01:57:06.020Z,5.30
2023-04-23T01:59:32.417Z,5.67
2023-04-23T02:01:59.252Z,5.43
2023-04-23T02:04:26.158Z,5.37
2023-04-23T02:06:52.789Z,4.90
2023-04-23T02:09:19.270Z,5.80
2023-04-23T02:11:45.747Z,5.67
2023-04-23T02:14:12.594Z,4.90
2023-04-23T02:16:39.554Z,5.40
2023-04-23T02:19:05.936Z,5.47
2023-04-23T02:21:32.465Z,5.40
2023-04-23T02:23:58.977Z,5.67
2023-04-23T02:26:25.475Z,5.40
2023-04-23T02:28:51.938Z,4.93
2023-04-23T02:31:20.723Z,5.40
2023-04-23T02:33:47.668Z,5.80
2023-04-23T02:36:14.228Z,5.40
2023-04-23T02:38:42.429Z,4.83
2023-04-23T02:41:09.088Z,4.50
2023-04-23T02:43:35.616Z,5.20
2023-04-23T02:46:08.187Z,5.00
2023-04-23T02:48:40.252Z,5.27
2023-04-23T02:51:08.971Z,5.20
2023-04-23T02:53:36.048Z,4.87
2023-04-23T02:56:02.939Z,5.40
2023-04-23T02:58:29.659Z,5.90
2023-04-23T03:00:56.703Z,4.80
2023-04-23T03:03:26.530Z,4.67
2023-04-23T03:05:54.103Z,4.37
2023-04-23T03:08:20.682Z,4.60
2023-04-23T03:10:47.087Z,5.10
2023-04-23T03:13:13.515Z,5.13
2023-04-23T03:15:40.649Z,4.77
2023-04-23T03:18:08.398Z,5.30
2023-04-23T03:20:35.797Z,5.47
2023-04-23T03:23:02.529Z,5.13
2023-04-23T03:25:28.964Z,5.17
2023-04-23T03:27:55.425Z,4.90
2023-04-23T03:30:21.963Z,5.20
2023-04-23T03:32:48.542Z,5.43
2023-04-23T03:35:14.974Z,5.20
2023-04-23T03:37:41.455Z,5.17
2023-04-23T03:40:09.270Z,5.53
2023-04-23T03:42:35.967Z,5.10
2023-04-23T03:45:02.423Z,4.80
2023-04-23T03:47:28.851Z,5.43
2023-04-23T03:49:55.590Z,4.80
2023-04-23T03:52:22.025Z,4.93
2023-04-23T03:54:48.500Z,4.67
2023-04-23T03:57:14.982Z,5.73
2023-04-23T03:59:41.402Z,5.03
2023-04-23T04:02:08.058Z,4.77
2023-04-23T04:04:34.929Z,6.07
2023-04-23T04:07:01.492Z,5.37
2023-04-23T04:09:28.793Z,5.60
2023-04-23T04:11:55.863Z,5.50
2023-04-23T04:14:23.218Z,5.57
2023-04-23T04:16:49.805Z,5.53
2023-04-23T04:19:16.299Z,5.33
2023-04-23T04:21:42.720Z,6.10
2023-04-23T04:24:11.335Z,5.17
2023-04-23T04:26:37.830Z,5.40
2023-04-23T04:29:04.648Z,5.37
2023-04-23T04:31:31.259Z,5.67
2023-04-23T04:33:58.383Z,5.37
2023-04-23T04:36:28.819Z,5.60
2023-04-23T04:38:58.699Z,5.67
2023-04-23T04:41:26.163Z,5.83
2023-04-23T04:43:52.716Z,5.67
2023-04-23T04:46:20.752Z,4.53
2023-04-23T04:48:48.024Z,6.00
2023-04-23T04:51:14.441Z,5.43
2023-04-23T04:53:40.850Z,5.77
2023-04-23T04:56:08.249Z,5.33
2023-04-23T04:58:34.865Z,6.17
2023-04-23T05:01:01.505Z,5.77
2023-04-23T05:03:28.264Z,5.50
2023-04-23T05:05:58.843Z,5.87
2023-04-23T05:08:25.564Z,5.60
2023-04-23T05:10:53.983Z,5.60
2023-04-23T05:13:20.542Z,6.33
2023-04-23T05:15:46.986Z,6.07
2023-04-23T05:18:13.651Z,6.80
2023-04-23T05:20:41.595Z,6.50
2023-04-23T05:23:08.028Z,6.80
2023-04-23T05:25:35.630Z,6.47
2023-04-23T05:28:02.503Z,5.63
2023-04-23T05:30:29.062Z,6.00
2023-04-23T05:32:55.669Z,6.60
2023-04-23T05:35:22.156Z,5.90
2023-04-23T05:37:48.518Z,6.10
2023-04-23T05:40:15.062Z,6.47
2023-04-23T05:42:41.458Z,7.43
2023-04-23T05:45:09.151Z,6.10
2023-04-23T05:47:36.442Z,6.40
2023-04-23T05:50:02.981Z,6.53
2023-04-23T05:52:33.360Z,5.30
2023-04-23T05:54:59.875Z,5.73
2023-04-23T05:57:26.654Z,6.10
2023-04-23T05:59:53.168Z,5.53
2023-04-23T06:02:20.498Z,6.40
2023-04-23T06:04:48.962Z,6.10
2023-04-23T06:07:16.132Z,6.57
2023-04-23T06:09:42.586Z,7.13
2023-04-23T06:12:10.569Z,6.93
2023-04-23T06:14:37.071Z,7.20
2023-04-23T06:17:03.650Z,7.30
2023-04-23T06:19:30.106Z,7.23
2023-04-23T06:21:56.584Z,6.13
2023-04-23T06:24:22.994Z,6.77
2023-04-23T06:26:49.468Z,7.10
2023-04-23T06:29:16.043Z,6.73
2023-04-23T06:31:42.702Z,5.93
2023-04-23T06:34:09.249Z,5.90
2023-04-23T06:36:35.704Z,5.50
2023-04-23T06:39:02.098Z,6.60
2023-04-23T06:41:28.692Z,5.57
2023-04-23T06:43:55.186Z,5.20
2023-04-23T06:46:21.693Z,5.23
2023-04-23T06:48:48.184Z,5.37
2023-04-23T06:51:14.851Z,5.10
2023-04-23T06:53:41.331Z,4.70
2023-04-23T06:56:08.364Z,3.73
2023-04-23T06:58:34.838Z,4.13
2023-04-23T07:01:04.119Z,4.30
2023-04-23T07:03:34.192Z,5.10
2023-04-23T07:06:01.225Z,5.43
2023-04-23T07:08:27.708Z,4.43
2023-04-23T07:10:54.143Z,4.37
2023-04-23T07:13:20.710Z,4.70
2023-04-23T07:15:47.277Z,4.87
2023-04-23T07:18:13.789Z,5.57
2023-04-23T07:20:40.282Z,4.30
2023-04-23T07:23:06.806Z,4.43
2023-04-23T07:25:33.546Z,3.87
2023-04-23T07:28:00.012Z,3.93
2023-04-23T07:30:27.436Z,4.20
2023-04-23T07:32:55.582Z,4.30
2023-04-23T07:35:22.121Z,4.70
2023-04-23T07:37:53.567Z,4.50
2023-04-23T07:40:24.395Z,4.10
2023-04-23T07:42:51.964Z,3.87
2023-04-23T07:45:19.529Z,4.27
2023-04-23T07:47:46.713Z,3.90
2023-04-23T07:50:13.749Z,4.07
2023-04-23T07:52:40.458Z,3.80
2023-04-23T07:55:07.725Z,4.23
2023-04-23T07:57:34.153Z,4.13
2023-04-23T08:00:00.917Z,4.70
2023-04-23T08:02:28.432Z,4.50
2023-04-23T08:04:55.253Z,4.70
2023-04-23T08:07:21.850Z,4.93
2023-04-23T08:09:48.781Z,4.57
2023-04-23T08:12:17.375Z,4.40
2023-04-23T08:14:44.877Z,4.70
2023-04-23T08:17:11.275Z,4.67
2023-04-23T08:19:37.738Z,4.50
2023-04-23T08:22:04.395Z,4.23
2023-04-23T08:24:30.904Z,4.70
2023-04-23T08:26:57.543Z,4.00
2023-04-23T08:29:23.958Z,4.20
2023-04-23T08:31:50.717Z,4.20
2023-04-23T08:34:17.128Z,4.50
2023-04-23T08:36:43.651Z,4.17
2023-04-23T08:39:10.130Z,4.13
2023-04-23T08:41:42.604Z,4.30
2023-04-23T08:44:26.176Z,3.50
2023-04-23T08:46:54.293Z,3.90
2023-04-23T08:49:20.720Z,3.90
2023-04-23T08:51:52.939Z,3.70
2023-04-23T08:54:27.020Z,3.87
2023-04-23T08:56:58.388Z,3.10
2023-04-23T08:59:34.432Z,2.93
2023-04-23T09:02:07.830Z,3.20
2023-04-23T09:04:35.543Z,3.20
2023-04-23T09:07:02.144Z,3.00
2023-04-23T09:09:30.158Z,2.70
2023-04-23T09:11:57.613Z,3.30
2023-04-23T09:14:25.609Z,3.07
2023-04-23T09:16:52.890Z,3.07
2023-04-23T09:19:19.472Z,3.10
2023-04-23T09:21:46.729Z,2.80
2023-04-23T09:24:14.785Z,2.90
2023-04-23T09:26:46.721Z,3.70
2023-04-23T09:29:18.442Z,3.10
2023-04-23T09:31:47.823Z,2.53
2023-04-23T09:34:19.291Z,3.40
2023-04-23T09:36:47.550Z,2.40
2023-04-23T09:39:16.038Z,2.63
2023-04-23T09:41:42.711Z,2.40
2023-04-23T09:44:09.254Z,2.20
2023-04-23T09:46:37.921Z,2.67
2023-04-23T09:49:08.129Z,2.40
2023-04-23T09:51:42.630Z,1.90
2023-04-23T09:54:17.814Z,2.47
2023-04-23T09:56:45.201Z,2.10
2023-04-23T09:59:39.407Z,1.80
2023-04-23T10:02:12.058Z,2.23
2023-04-23T10:04:39.697Z,2.10
2023-04-23T10:07:18.828Z,2.10
2023-04-23T10:09:46.728Z,2.50
2023-04-23T10:12:31.438Z,2.00
2023-04-23T10:15:00.495Z,1.80
2023-04-23T10:17:27.329Z,1.80
2023-04-23T10:19:55.564Z,2.57
2023-04-23T10:22:23.041Z,2.30
2023-04-23T10:24:55.843Z,1.80
2023-04-23T10:27:36.661Z,2.10
2023-04-23T10:30:10.789Z,1.53
2023-04-23T10:32:41.233Z,1.53
2023-04-23T10:35:09.348Z,1.60
2023-04-23T10:37:37.482Z,2.00
2023-04-23T10:40:09.226Z,1.77
2023-04-23T10:42:35.924Z,1.43
2023-04-23T10:45:20.350Z,1.97
2023-04-23T10:47:50.323Z,1.70
2023-04-23T10:50:22.477Z,1.33
2023-04-23T10:52:53.317Z,1.40
2023-04-23T10:55:25.574Z,1.43
2023-04-23T10:58:03.272Z,2.00
2023-04-23T11:00:45.837Z,1.50
2023-04-23T11:03:39.768Z,1.57
2023-04-23T11:06:12.386Z,1.40
2023-04-23T11:08:52.729Z,1.13
2023-04-23T11:11:24.679Z,1.50
2023-04-23T11:13:53.300Z,1.37
2023-04-23T11:16:23.845Z,1.40
2023-04-23T11:19:04.803Z,1.27
2023-04-23T11:22:02.093Z,1.60
2023-04-23T11:24:33.470Z,1.30
2023-04-23T11:27:01.454Z,1.30
2023-04-23T11:29:28.601Z,1.87
2023-04-23T11:34:26.231Z,1.53
2023-04-23T11:36:57.309Z,1.70
2023-04-23T11:39:24.294Z,1.70
2023-04-23T11:41:52.318Z,1.50
2023-04-23T11:44:20.821Z,1.50
2023-04-23T11:46:49.219Z,1.87
2023-04-23T11:49:17.279Z,1.80
2023-04-23T11:51:45.449Z,1.73
2023-04-23T11:54:13.450Z,1.60
2023-04-23T11:56:40.987Z,1.73
2023-04-23T11:59:08.151Z,1.63
2023-04-23T12:01:48.785Z,1.67
2023-04-23T12:04:17.281Z,1.50
2023-04-23T12:06:45.941Z,1.60
2023-04-23T12:09:14.012Z,2.00
2023-04-23T12:11:42.410Z,1.73
2023-04-23T12:14:10.593Z,2.50
2023-04-23T12:16:42.224Z,2.00
2023-04-23T12:19:20.648Z,2.10
2023-04-23T12:21:56.441Z,1.90
2023-04-23T12:24:27.268Z,2.40
2023-04-23T12:26:55.986Z,1.93
2023-04-23T12:29:23.178Z,3.03
2023-04-23T12:31:52.246Z,2.30
2023-04-23T12:34:20.588Z,2.20
2023-04-23T12:36:49.549Z,2.80
2023-04-23T12:39:32.200Z,2.60
2023-04-23T12:42:01.399Z,2.97
2023-04-23T12:44:28.843Z,2.40
2023-04-23T12:46:58.146Z,2.23
2023-04-23T12:49:27.125Z,2.87
2023-04-23T12:51:57.492Z,3.23
2023-04-23T12:54:26.543Z,3.50
2023-04-23T12:56:53.394Z,4.10
2023-04-23T12:59:19.843Z,3.10
2023-04-23T13:01:46.364Z,4.40
2023-04-23T13:04:13.201Z,4.30
2023-04-23T13:06:40.352Z,3.80
2023-04-23T13:09:09.652Z,3.90
2023-04-23T13:11:40.384Z,2.90
2023-04-23T13:14:07.560Z,3.23
2023-04-23T13:16:34.213Z,3.70
2023-04-23T13:19:01.233Z,2.57
2023-04-23T13:21:27.773Z,3.07
2023-04-23T13:23:54.190Z,3.20
2023-04-23T13:26:20.693Z,2.97
2023-04-23T13:28:47.209Z,2.60
2023-04-23T13:31:13.805Z,2.60
2023-04-23T13:33:41.054Z,2.80
2023-04-23T13:36:08.014Z,3.20
2023-04-23T13:38:34.842Z,2.67
2023-04-23T13:41:01.375Z,2.60
2023-04-23T13:43:27.829Z,2.80
2023-04-23T13:45:54.894Z,2.30
2023-04-23T13:48:21.690Z,2.70
2023-04-23T13:50:48.141Z,1.90
2023-04-23T13:53:14.730Z,2.10
2023-04-23T13:55:41.346Z,2.17
2023-04-23T13:58:07.995Z,1.90
2023-04-23T14:00:34.636Z,2.40
2023-04-23T14:03:01.189Z,2.53
2023-04-23T14:05:27.771Z,2.23
2023-04-23T14:07:54.215Z,1.97
2023-04-23T14:10:20.679Z,1.57
2023-04-23T14:12:47.321Z,2.00
2023-04-23T14:15:14.446Z,2.20
2023-04-23T14:17:42.943Z,2.43
2023-04-23T14:20:10.299Z,2.30
2023-04-23T14:22:36.954Z,1.97
2023-04-23T14:25:15.556Z,1.90
2023-04-23T14:27:49.964Z,2.20
2023-04-23T14:30:20.254Z,2.00
2023-04-23T14:32:49.915Z,1.60
2023-04-23T14:35:17.391Z,1.90
2023-04-23T14:37:45.392Z,1.70
2023-04-23T14:40:15.714Z,2.17
2023-04-23T14:42:42.156Z,2.00
2023-04-23T14:45:09.055Z,1.87
2023-04-23T14:47:35.488Z,1.37
2023-04-23T14:50:02.011Z,1.53
2023-04-23T14:52:28.557Z,1.70
2023-04-23T14:54:55.897Z,1.53
2023-04-23T14:57:22.723Z,1.70
2023-04-23T14:59:49.166Z,1.60
2023-04-23T15:02:15.934Z,1.63
2023-04-23T15:04:42.480Z,1.53
2023-04-23T15:07:08.891Z,1.70
2023-04-23T15:09:35.299Z,1.50
2023-04-23T15:12:04.099Z,1.87
2023-04-23T15:14:37.440Z,1.93
2023-04-23T15:17:03.910Z,1.80
2023-04-23T15:19:31.278Z,1.23
2023-04-23T15:21:57.737Z,1.73
2023-04-23T15:24:24.193Z,2.07
2023-04-23T15:26:53.204Z,1.67
2023-04-23T15:29:20.080Z,1.70
2023-04-23T15:31:46.573Z,1.90
2023-04-23T15:34:13.133Z,1.97
2023-04-23T15:36:39.688Z,1.90
2023-04-23T15:39:09.639Z,2.20
2023-04-23T15:41:39.312Z,2.20
2023-04-23T15:44:09.499Z,1.80
2023-04-23T15:46:36.074Z,1.73
2023-04-23T15:49:05.055Z,2.50
2023-04-23T15:51:32.957Z,1.67
2023-04-23T15:54:00.652Z,2.00
2023-04-23T15:56:27.074Z,1.80
2023-04-23T15:58:53.496Z,1.40
2023-04-23T16:01:20.067Z,1.20
2023-04-23T16:03:57.968Z,1.57
2023-04-23T16:06:33.024Z,2.10
2023-04-23T16:08:59.574Z,2.20
2023-04-23T16:11:28.238Z,2.10
2023-04-23T16:13:56.099Z,2.17
2023-04-23T16:16:22.514Z,2.20
2023-04-23T16:18:49.484Z,1.70
2023-04-23T16:21:16.088Z,1.60
2023-04-23T16:23:42.638Z,1.87
2023-04-23T16:26:09.083Z,2.00
2023-04-23T16:28:35.605Z,1.40
2023-04-23T16:31:02.110Z,1.70
2023-04-23T16:33:30.395Z,1.30
2023-04-23T16:35:57.156Z,1.50
2023-04-23T16:38:23.788Z,1.70
2023-04-23T16:40:51.463Z,1.20
2023-04-23T16:43:17.965Z,1.33
2023-04-23T16:45:44.502Z,1.30
2023-04-23T16:48:13.902Z,1.90
2023-04-23T16:50:42.688Z,2.17
2023-04-23T16:53:09.826Z,4.17
2023-04-23T16:55:39.493Z,1.67
2023-04-23T16:58:06.570Z,1.67
2023-04-23T17:00:33.036Z,1.13
2023-04-23T17:02:59.532Z,1.20
2023-04-23T17:05:26.082Z,1.00
2023-04-23T17:07:53.268Z,1.10
2023-04-23T17:10:19.837Z,1.30
2023-04-23T17:12:46.272Z,1.50
2023-04-23T17:15:12.649Z,1.10
2023-04-23T17:17:39.117Z,1.00
2023-04-23T17:20:07.061Z,0.90
2023-04-23T17:22:34.612Z,1.90
2023-04-23T17:25:01.004Z,1.20
2023-04-23T17:27:27.471Z,0.80
2023-04-23T17:29:53.926Z,0.80
2023-04-23T17:32:20.615Z,1.03
2023-04-23T17:34:49.529Z,1.00
2023-04-23T17:37:21.678Z,1.37
2023-04-23T17:39:48.100Z,1.10
2023-04-23T17:42:14.581Z,0.90
2023-04-23T17:44:41.807Z,1.00
2023-04-23T17:47:10.184Z,1.00
2023-04-23T17:49:36.691Z,0.90
2023-04-23T17:52:03.469Z,0.80
2023-04-23T17:54:29.893Z,1.20
2023-04-23T17:56:56.244Z,1.00
2023-04-23T17:59:22.683Z,0.90
2023-04-23T18:01:49.424Z,1.10
2023-04-23T18:04:17.658Z,0.80
2023-04-23T18:06:44.484Z,1.03
2023-04-23T18:09:10.950Z,1.30
2023-04-23T18:11:37.760Z,0.90
2023-04-23T18:14:04.217Z,0.80
2023-04-23T18:16:30.833Z,0.90
2023-04-23T18:18:57.372Z,1.10
2023-04-23T18:21:23.810Z,0.80
2023-04-23T18:23:50.208Z,0.90
2023-04-23T18:26:16.610Z,0.80
2023-04-23T18:28:43.017Z,0.80
2023-04-23T18:31:09.648Z,1.13
2023-04-23T18:33:41.895Z,0.83
2023-04-23T18:36:23.980Z,1.20
2023-04-23T18:38:50.586Z,0.90
2023-04-23T18:41:17.155Z,1.00
2023-04-23T18:43:43.795Z,0.80
2023-04-23T18:46:10.415Z,1.07
2023-04-23T18:48:46.334Z,0.90
2023-04-23T18:51:37.195Z,0.80
2023-04-23T18:54:04.287Z,1.10
2023-04-23T18:56:30.793Z,1.47
2023-04-23T18:58:57.225Z,1.37
2023-04-23T19:01:24.432Z,1.40
2023-04-23T19:03:50.989Z,1.43
2023-04-23T19:06:17.475Z,1.43
2023-04-23T19:08:43.880Z,2.33
2023-04-23T19:11:10.314Z,3.70
2023-04-23T19:13:36.794Z,1.80
2023-04-23T19:16:03.412Z,1.93
2023-04-23T19:18:30.054Z,1.70
2023-04-23T19:20:56.558Z,1.30
2023-04-23T19:23:22.983Z,1.20
2023-04-23T19:25:49.391Z,1.47
2023-04-23T19:28:15.786Z,1.00
2023-04-23T19:30:42.284Z,1.27
2023-04-23T19:33:08.817Z,1.00
2023-04-23T19:35:36.765Z,1.40
2023-04-23T19:38:04.462Z,1.10
2023-04-23T19:40:30.907Z,1.30
2023-04-23T19:42:57.327Z,1.27
2023-04-23T19:45:23.816Z,1.30
2023-04-23T19:47:50.815Z,1.57
2023-04-23T19:50:17.873Z,1.40
2023-04-23T19:52:44.299Z,1.00
2023-04-23T19:55:10.905Z,1.00
2023-04-23T19:57:37.688Z,0.90
2023-04-23T20:00:12.313Z,0.70
2023-04-23T20:02:38.864Z,0.90
2023-04-23T20:05:06.136Z,0.90
2023-04-23T20:07:32.755Z,0.70
2023-04-23T20:09:59.171Z,1.00
2023-04-23T20:12:25.629Z,0.80
2023-04-23T20:14:52.347Z,0.73
2023-04-23T20:17:18.791Z,0.87
2023-04-23T20:19:45.437Z,1.07
2023-04-23T20:22:12.071Z,0.67
2023-04-23T20:24:40.346Z,0.80
2023-04-23T20:27:07.016Z,0.60
2023-04-23T20:29:33.600Z,0.60
2023-04-23T20:32:00.144Z,0.70
2023-04-23T20:34:27.052Z,0.60
2023-04-23T20:36:53.625Z,0.73
2023-04-23T20:39:20.993Z,0.50
2023-04-23T20:41:47.612Z,0.60
2023-04-23T20:44:14.151Z,0.57
2023-04-23T20:46:40.935Z,0.60
2023-04-23T20:49:07.493Z,0.60
2023-04-23T20:51:34.255Z,0.50
2023-04-23T20:54:01.586Z,0.80
2023-04-23T20:56:28.393Z,0.60
2023-04-23T20:58:54.854Z,0.60
2023-04-23T21:01:21.598Z,0.50
2023-04-23T21:03:48.747Z,0.50
2023-04-23T21:06:15.468Z,0.50
2023-04-23T21:08:42.697Z,0.60
2023-04-23T21:11:13.623Z,0.67
2023-04-23T21:13:40.785Z,0.60
2023-04-23T21:16:07.284Z,1.10
2023-04-23T21:18:33.826Z,1.87
2023-04-23T21:21:00.611Z,1.90
2023-04-23T21:23:27.118Z,1.23
2023-04-23T21:25:53.586Z,0.80
2023-04-23T21:28:20.235Z,0.63
2023-04-23T21:30:48.557Z,0.60
2023-04-23T21:33:16.590Z,0.70
2023-04-23T21:35:43.812Z,0.70
2023-04-23T21:38:11.316Z,0.93
2023-04-23T21:40:38.881Z,0.83
2023-04-23T21:43:06.771Z,3.00
2023-04-23T21:45:33.868Z,2.30
2023-04-23T21:48:01.026Z,1.33
2023-04-23T21:50:28.709Z,0.90
2023-04-23T21:52:58.223Z,0.70
2023-04-23T21:55:28.931Z,0.70
2023-04-23T21:58:03.168Z,1.50
2023-04-23T22:00:33.210Z,0.80
2023-04-23T22:03:00.811Z,0.60
2023-04-23T22:05:28.486Z,0.80
2023-04-23T22:07:56.980Z,0.70
2023-04-23T22:10:23.915Z,0.60
2023-04-23T22:12:50.727Z,0.60
2023-04-23T22:15:19.036Z,0.80
2023-04-23T22:17:50.346Z,1.17
2023-04-23T22:20:18.945Z,0.70
2023-04-23T22:22:45.850Z,0.60
2023-04-23T22:25:13.034Z,0.80
2023-04-23T22:27:41.034Z,1.17
2023-04-23T22:30:09.525Z,1.03
2023-04-23T22:32:36.677Z,1.07
2023-04-23T22:35:03.559Z,1.10
2023-04-23T22:37:31.355Z,1.27
2023-04-23T22:39:57.835Z,1.20
2023-04-23T22:42:24.213Z,1.10
2023-04-23T22:44:50.625Z,1.10
2023-04-23T22:47:17.781Z,0.90
2023-04-23T22:49:44.518Z,1.00
2023-04-23T22:52:15.089Z,1.20
2023-04-23T22:54:41.950Z,1.00
2023-04-23T22:57:09.037Z,0.80
2023-04-23T22:59:36.156Z,0.93
2023-04-23T23:02:02.534Z,0.70
2023-04-23T23:04:29.057Z,0.80
2023-04-23T23:06:56.326Z,0.77
2023-04-23T23:09:22.732Z,0.80
2023-04-23T23:11:49.103Z,1.00
2023-04-23T23:14:16.895Z,1.20
2023-04-23T23:16:43.348Z,1.60
2023-04-23T23:19:09.797Z,0.70
2023-04-23T23:21:36.219Z,0.80
2023-04-23T23:24:02.613Z,1.00
2023-04-23T23:26:29.083Z,0.80
2023-04-23T23:28:55.616Z,0.80
2023-04-23T23:31:25.774Z,0.70
2023-04-23T23:33:53.170Z,0.80
2023-04-23T23:36:19.769Z,0.80
2023-04-23T23:38:46.240Z,1.10
2023-04-23T23:41:12.792Z,0.67
2023-04-23T23:43:39.567Z,0.70
2023-04-23T23:46:06.067Z,0.70
2023-04-23T23:48:32.560Z,0.60
2023-04-23T23:50:59.018Z,0.50
2023-04-23T23:53:25.482Z,0.60
2023-04-23T23:55:51.958Z,0.60
2023-04-23T23:58:18.358Z,0.70
